createdAt,value
2018-08-18T00:00:30.352Z,76.50
2018-08-18T00:03:07.213Z,77.80
2018-08-18T00:05:46.004Z,79.02
2018-08-18T00:08:26.908Z,80.16
2018-08-18T00:11:04.171Z,79.37
2018-08-18T00:13:59.499Z,79.25
2018-08-18T00:16:35.325Z,78.18
2018-08-18T00:19:11.271Z,76.66
2018-08-18T00:21:47.018Z,76.24
2018-08-18T00:24:26.251Z,76.12
2018-08-18T00:27:02.601Z,76.44
2018-08-18T00:29:39.239Z,76.71
2018-08-18T00:32:15.072Z,76.68
2018-08-18T00:34:54.645Z,75.51
2018-08-18T00:37:30.425Z,79.09
2018-08-18T00:40:07.798Z,80.23
2018-08-18T00:42:43.540Z,81.59
2018-08-18T00:45:20.590Z,80.89
2018-08-18T00:47:56.343Z,80.66
2018-08-18T00:50:42.637Z,80.32
2018-08-18T00:53:18.494Z,80.23
2018-08-18T00:55:54.417Z,82.26
2018-08-18T00:58:30.285Z,82.05
2018-08-18T01:01:06.642Z,81.49
2018-08-18T01:03:47.224Z,81.32
2018-08-18T01:06:26.281Z,79.87
2018-08-18T01:09:03.565Z,79.71
2018-08-18T01:11:40.082Z,80.19
2018-08-18T01:14:22.013Z,80.99
2018-08-18T01:16:58.017Z,81.61
2018-08-18T01:19:33.776Z,80.55
2018-08-18T01:22:11.698Z,78.58
2018-08-18T01:24:47.694Z,78.27
2018-08-18T01:27:23.644Z,77.36
2018-08-18T01:30:04.356Z,77.32
2018-08-18T01:32:40.513Z,76.16
2018-08-18T01:35:16.361Z,75.75
2018-08-18T01:37:52.180Z,76.47
2018-08-18T01:40:28.013Z,77.62
2018-08-18T01:43:05.861Z,78.99
2018-08-18T01:45:41.933Z,79.91
2018-08-18T01:48:17.846Z,80.90
2018-08-18T01:50:53.810Z,79.68
2018-08-18T01:53:29.638Z,78.72
2018-08-18T01:56:05.395Z,77.75
2018-08-18T01:58:41.379Z,77.75
2018-08-18T02:01:17.087Z,78.43
2018-08-18T02:03:52.929Z,80.80
2018-08-18T02:06:28.816Z,83.59
2018-08-18T02:09:05.062Z,84.43
2018-08-18T02:11:41.612Z,84.67
2018-08-18T02:14:21.195Z,85.07
2018-08-18T02:17:08.401Z,84.12
2018-08-18T02:19:44.280Z,84.31
2018-08-18T02:22:20.000Z,83.86
2018-08-18T02:24:56.141Z,82.81
2018-08-18T02:27:31.744Z,84.87
2018-08-18T02:30:15.825Z,85.62
2018-08-18T02:32:51.588Z,85.31
2018-08-18T02:35:27.464Z,85.45
2018-08-18T02:38:03.869Z,84.15
2018-08-18T02:40:39.516Z,82.19
2018-08-18T02:43:21.181Z,81.05
2018-08-18T02:45:57.891Z,80.39
2018-08-18T02:48:33.854Z,79.04
2018-08-18T02:51:09.530Z,77.91
2018-08-18T02:53:45.531Z,78.59
2018-08-18T02:56:22.314Z,77.73
2018-08-18T02:59:02.774Z,77.51
2018-08-18T03:01:41.206Z,76.98
2018-08-18T03:04:16.951Z,78.08
2018-08-18T03:06:52.813Z,78.79
2018-08-18T03:09:28.564Z,79.95
2018-08-18T03:12:04.694Z,80.75
2018-08-18T03:14:41.074Z,81.03
2018-08-18T03:17:16.982Z,81.33
2018-08-18T03:19:53.370Z,81.32
2018-08-18T03:22:34.205Z,80.29
2018-08-18T03:25:10.171Z,80.06
2018-08-18T03:27:45.845Z,80.40
2018-08-18T03:30:21.577Z,81.33
2018-08-18T03:32:57.469Z,81.71
2018-08-18T03:35:33.667Z,81.01
2018-08-18T03:38:09.345Z,79.65
2018-08-18T03:40:45.255Z,80.07
2018-08-18T03:43:20.893Z,79.29
2018-08-18T03:45:56.773Z,78.88
2018-08-18T03:48:33.108Z,78.48
2018-08-18T03:51:08.966Z,79.84
2018-08-18T03:53:44.740Z,80.24
2018-08-18T03:56:20.506Z,80.95
2018-08-18T03:58:57.512Z,81.95
2018-08-18T04:01:43.908Z,82.29
2018-08-18T04:04:20.707Z,83.77
2018-08-18T04:06:57.581Z,85.29
2018-08-18T04:09:34.572Z,85.63
2018-08-18T04:12:11.234Z,86.11
2018-08-18T04:14:47.258Z,86.79
2018-08-18T04:17:29.476Z,86.43
2018-08-18T04:20:06.788Z,87.18
2018-08-18T04:22:43.814Z,85.57
2018-08-18T04:25:19.530Z,84.61
2018-08-18T04:27:55.626Z,84.54
2018-08-18T04:30:31.976Z,82.72
2018-08-18T04:33:07.898Z,81.40
2018-08-18T04:35:47.710Z,81.76
2018-08-18T04:38:23.852Z,80.31
2018-08-18T04:40:59.614Z,79.56
2018-08-18T04:43:36.749Z,78.60
2018-08-18T04:46:12.457Z,78.37
2018-08-18T04:48:48.304Z,77.83
2018-08-18T04:51:24.071Z,78.36
2018-08-18T04:54:00.272Z,77.53
2018-08-18T04:56:35.993Z,77.37
2018-08-18T04:59:11.856Z,76.72
2018-08-18T05:01:47.901Z,76.31
2018-08-18T05:04:23.897Z,74.30
2018-08-18T05:06:59.760Z,73.11
2018-08-18T05:09:35.546Z,71.26
2018-08-18T05:12:11.427Z,69.54
2018-08-18T05:14:47.455Z,70.83
2018-08-18T05:17:23.133Z,69.46
2018-08-18T05:20:09.754Z,67.83
2018-08-18T05:22:45.642Z,67.42
2018-08-18T05:25:29.253Z,67.12
2018-08-18T05:28:05.009Z,65.50
2018-08-18T05:30:40.797Z,63.62
2018-08-18T05:33:16.570Z,64.36
2018-08-18T05:35:52.290Z,62.89
2018-08-18T05:38:28.003Z,61.86
2018-08-18T05:41:05.015Z,61.52
2018-08-18T05:43:40.994Z,61.71
2018-08-18T05:46:17.141Z,60.56
2018-08-18T05:48:53.863Z,59.62
2018-08-18T05:51:32.121Z,60.62
2018-08-18T05:54:09.570Z,60.97
2018-08-18T05:56:46.614Z,61.70
2018-08-18T05:59:22.627Z,60.87
2018-08-18T06:01:58.628Z,60.54
2018-08-18T06:04:34.438Z,60.02
2018-08-18T06:07:10.277Z,59.55
2018-08-18T06:09:46.100Z,60.38
2018-08-18T06:12:22.626Z,60.25
2018-08-18T06:14:58.363Z,59.79
2018-08-18T06:17:34.343Z,56.53
2018-08-18T06:20:10.249Z,56.60
2018-08-18T06:22:46.110Z,53.84
2018-08-18T06:25:22.679Z,52.95
2018-08-18T06:27:58.537Z,53.78
2018-08-18T06:30:34.380Z,53.26
2018-08-18T06:33:05.191Z,54.35
2018-08-18T06:35:39.090Z,52.94
2018-08-18T06:38:10.772Z,53.82
2018-08-18T06:40:44.500Z,52.47
2018-08-18T06:43:15.341Z,52.10
2018-08-18T06:45:46.157Z,50.83
2018-08-18T06:48:21.202Z,50.52
2018-08-18T06:50:52.449Z,51.19
2018-08-18T06:53:24.064Z,50.20
2018-08-18T06:55:55.165Z,49.64
2018-08-18T06:58:26.033Z,49.43
2018-08-18T07:00:56.972Z,49.68
2018-08-18T07:03:35.148Z,49.81
2018-08-18T07:06:07.145Z,49.51
2018-08-18T07:08:43.144Z,48.68
2018-08-18T07:11:14.083Z,47.93
2018-08-18T07:13:45.837Z,47.24
2018-08-18T07:16:16.699Z,48.04
2018-08-18T07:18:47.477Z,47.62
2018-08-18T07:21:18.346Z,46.70
2018-08-18T07:23:49.253Z,47.97
2018-08-18T07:26:20.075Z,47.34
2018-08-18T07:28:51.430Z,46.66
2018-08-18T07:31:22.375Z,46.03
2018-08-18T07:33:53.658Z,47.07
2018-08-18T07:36:24.497Z,46.63
2018-08-18T07:38:55.309Z,46.09
2018-08-18T07:41:27.201Z,45.30
2018-08-18T07:44:00.446Z,46.01
2018-08-18T07:46:31.589Z,46.37
2018-08-18T07:49:04.490Z,45.72
2018-08-18T07:51:35.689Z,44.06
2018-08-18T07:54:06.490Z,43.84
2018-08-18T07:56:37.316Z,43.96
2018-08-18T07:59:08.318Z,42.73
2018-08-18T08:01:39.146Z,41.57
2018-08-18T08:04:09.947Z,42.42
2018-08-18T08:06:40.826Z,41.86
2018-08-18T08:09:12.021Z,39.64
2018-08-18T08:11:42.863Z,38.06
2018-08-18T08:14:13.633Z,39.87
2018-08-18T08:16:44.453Z,40.23
2018-08-18T08:19:15.255Z,35.11
2018-08-18T08:21:46.069Z,32.10
2018-08-18T08:24:17.041Z,33.60
2018-08-18T08:26:47.849Z,34.07
2018-08-18T08:29:20.285Z,34.19
2018-08-18T08:31:51.082Z,35.00
2018-08-18T08:34:22.097Z,33.26
2018-08-18T08:36:53.021Z,35.02
2018-08-18T08:39:24.008Z,33.69
2018-08-18T08:41:54.816Z,34.14
2018-08-18T08:44:25.632Z,34.69
2018-08-18T08:47:01.727Z,35.28
2018-08-18T08:49:32.522Z,36.01
2018-08-18T08:52:03.485Z,34.87
2018-08-18T08:54:46.074Z,34.99
2018-08-18T08:57:17.057Z,35.89
2018-08-18T08:59:47.839Z,35.24
2018-08-18T09:02:19.054Z,31.86
2018-08-18T09:04:49.833Z,32.21
2018-08-18T09:07:21.090Z,31.13
2018-08-18T09:09:51.896Z,30.11
2018-08-18T09:12:22.781Z,31.26
2018-08-18T09:14:53.549Z,30.47
2018-08-18T09:17:24.922Z,31.34
2018-08-18T09:19:55.696Z,28.94
2018-08-18T09:22:27.840Z,30.26
2018-08-18T09:25:02.670Z,28.62
2018-08-18T09:27:35.048Z,28.39
2018-08-18T09:30:06.133Z,28.77
2018-08-18T09:32:36.957Z,28.11
2018-08-18T09:35:07.800Z,29.90
2018-08-18T09:37:42.140Z,28.08
2018-08-18T09:40:12.911Z,26.27
2018-08-18T09:42:43.865Z,27.07
2018-08-18T09:45:14.710Z,28.63
2018-08-18T09:47:45.589Z,28.47
2018-08-18T09:50:16.583Z,26.77
2018-08-18T09:52:47.478Z,27.91
2018-08-18T09:55:18.385Z,29.88
2018-08-18T09:57:49.245Z,29.69
2018-08-18T10:00:24.094Z,30.69
2018-08-18T10:02:54.903Z,31.66
2018-08-18T10:05:25.680Z,30.81
2018-08-18T10:07:56.485Z,31.62
2018-08-18T10:10:27.331Z,28.79
2018-08-18T10:13:01.554Z,27.29
2018-08-18T10:15:32.342Z,26.09
2018-08-18T10:18:04.290Z,25.77
2018-08-18T10:20:51.733Z,26.60
2018-08-18T10:23:22.667Z,24.98
2018-08-18T10:25:53.485Z,26.92
2018-08-18T10:28:24.354Z,26.73
2018-08-18T10:30:55.143Z,24.85
2018-08-18T10:33:26.082Z,24.51
2018-08-18T10:35:56.978Z,24.99
2018-08-18T10:38:27.781Z,27.12
2018-08-18T10:40:59.073Z,27.12
2018-08-18T10:43:30.311Z,28.11
2018-08-18T10:46:01.133Z,28.92
2018-08-18T10:48:32.061Z,27.13
2018-08-18T10:51:28.766Z,27.77
2018-08-18T10:54:02.078Z,25.58
2018-08-18T10:56:32.932Z,25.15
2018-08-18T10:59:16.661Z,25.49
2018-08-18T11:02:08.471Z,25.59
2018-08-18T11:04:39.282Z,26.27
2018-08-18T11:07:10.095Z,29.42
2018-08-18T11:09:40.925Z,26.50
2018-08-18T11:12:12.097Z,26.40
2018-08-18T11:14:46.627Z,26.54
2018-08-18T11:17:17.492Z,27.02
2018-08-18T11:19:48.442Z,27.14
2018-08-18T11:23:32.171Z,27.12
2018-08-18T11:26:03.038Z,26.63
2018-08-18T11:28:34.211Z,27.10
2018-08-18T11:31:05.375Z,28.20
2018-08-18T11:33:41.574Z,26.98
2018-08-18T11:36:13.674Z,26.39
2018-08-18T11:38:44.481Z,24.93
2018-08-18T11:41:15.332Z,25.29
2018-08-18T11:43:48.333Z,23.05
2018-08-18T11:46:19.172Z,23.25
2018-08-18T11:48:49.948Z,23.84
2018-08-18T11:51:21.752Z,25.67
2018-08-18T11:54:00.628Z,23.05
2018-08-18T11:56:33.150Z,22.53
2018-08-18T11:59:08.050Z,24.36
2018-08-18T12:01:40.251Z,22.23
2018-08-18T12:04:11.105Z,23.29
2018-08-18T12:06:58.602Z,24.74
2018-08-18T12:09:29.577Z,25.08
2018-08-18T12:12:01.082Z,24.03
2018-08-18T12:14:32.037Z,25.68
2018-08-18T12:17:03.071Z,25.94
2018-08-18T12:19:33.909Z,25.12
2018-08-18T12:22:04.849Z,24.64
2018-08-18T12:24:35.725Z,23.62
2018-08-18T12:27:09.706Z,23.70
2018-08-18T12:29:40.543Z,24.50
2018-08-18T12:32:18.494Z,23.22
2018-08-18T12:34:49.276Z,22.68
2018-08-18T12:37:25.508Z,22.79
2018-08-18T12:39:58.324Z,22.19
2018-08-18T12:42:29.625Z,20.26
2018-08-18T12:45:00.404Z,19.45
2018-08-18T12:47:31.438Z,19.10
2018-08-18T12:50:03.799Z,19.01
2018-08-18T12:52:44.469Z,18.94
2018-08-18T12:55:15.254Z,20.28
2018-08-18T12:57:47.486Z,21.50
2018-08-18T13:00:18.885Z,20.90
2018-08-18T13:02:53.608Z,23.46
2018-08-18T13:05:26.883Z,23.14
2018-08-18T13:08:00.950Z,21.57
2018-08-18T13:10:34.512Z,20.06
2018-08-18T13:13:09.041Z,20.18
2018-08-18T13:15:40.823Z,20.00
2018-08-18T13:18:11.648Z,20.07
2018-08-18T13:20:42.467Z,22.00
2018-08-18T13:23:13.570Z,23.00
2018-08-18T13:25:46.016Z,23.10
2018-08-18T13:28:17.462Z,23.95
2018-08-18T13:30:48.384Z,23.25
2018-08-18T13:33:19.345Z,22.24
2018-08-18T13:35:50.952Z,22.41
2018-08-18T13:38:30.454Z,21.72
2018-08-18T13:41:01.255Z,20.99
2018-08-18T13:43:46.508Z,22.84
2018-08-18T13:46:18.565Z,20.93
2018-08-18T13:48:54.659Z,21.49
2018-08-18T13:51:25.406Z,21.98
2018-08-18T13:53:56.247Z,21.88
2018-08-18T13:56:28.102Z,21.98
2018-08-18T13:58:59.106Z,21.19
2018-08-18T14:01:37.954Z,22.10
2018-08-18T14:04:16.013Z,19.86
2018-08-18T14:06:54.586Z,20.55
2018-08-18T14:09:25.439Z,20.44
2018-08-18T14:12:02.505Z,19.00
2018-08-18T14:14:33.398Z,19.36
2018-08-18T14:17:04.214Z,21.80
2018-08-18T14:19:35.086Z,23.37
2018-08-18T14:22:08.365Z,24.01
2018-08-18T14:24:45.487Z,25.22
2018-08-18T14:27:20.367Z,22.63
2018-08-18T14:29:56.958Z,21.61
2018-08-18T14:32:27.821Z,20.59
2018-08-18T14:35:07.723Z,18.96
2018-08-18T14:37:41.347Z,18.39
2018-08-18T14:40:15.860Z,18.24
2018-08-18T14:42:48.002Z,20.98
2018-08-18T14:45:20.591Z,20.89
2018-08-18T14:47:51.810Z,21.81
2018-08-18T14:50:25.276Z,21.12
2018-08-18T14:52:56.069Z,20.86
2018-08-18T14:55:26.952Z,19.90
2018-08-18T14:58:05.750Z,21.84
2018-08-18T15:00:36.654Z,21.57
2018-08-18T15:03:07.907Z,22.52
2018-08-18T15:05:38.774Z,22.78
2018-08-18T15:08:09.962Z,23.42
2018-08-18T15:10:42.312Z,21.80
2018-08-18T15:13:13.692Z,23.13
2018-08-18T15:15:44.910Z,24.35
2018-08-18T15:18:17.038Z,24.67
2018-08-18T15:20:47.948Z,26.35
2018-08-18T15:23:19.169Z,27.26
2018-08-18T15:25:58.544Z,27.51
2018-08-18T15:28:29.325Z,28.57
2018-08-18T15:31:00.562Z,27.84
2018-08-18T15:33:31.589Z,26.54
2018-08-18T15:36:03.448Z,27.10
2018-08-18T15:38:44.213Z,27.74
2018-08-18T15:41:15.185Z,27.61
2018-08-18T15:43:45.970Z,28.35
2018-08-18T15:46:17.733Z,28.38
2018-08-18T15:48:48.493Z,27.69
2018-08-18T15:51:19.379Z,28.10
2018-08-18T15:53:55.505Z,28.93
2018-08-18T15:56:27.405Z,27.81
2018-08-18T15:59:04.018Z,28.68
2018-08-18T16:01:35.889Z,30.55
2018-08-18T16:04:07.151Z,30.24
2018-08-18T16:06:37.991Z,30.31
2018-08-18T16:09:09.776Z,31.04
2018-08-18T16:11:40.602Z,31.20
2018-08-18T16:14:11.357Z,31.23
2018-08-18T16:16:55.845Z,32.39
2018-08-18T16:19:26.705Z,32.12
2018-08-18T16:21:57.576Z,33.33
2018-08-18T16:24:39.608Z,34.10
2018-08-18T16:27:10.442Z,34.43
2018-08-18T16:29:41.598Z,34.80
2018-08-18T16:32:21.213Z,34.95
2018-08-18T16:35:01.453Z,34.86
2018-08-18T16:37:34.760Z,35.84
2018-08-18T16:40:05.688Z,36.08
2018-08-18T16:42:36.517Z,36.36
2018-08-18T16:45:07.475Z,37.29
2018-08-18T16:47:43.320Z,36.90
2018-08-18T16:50:14.133Z,37.46
2018-08-18T16:52:44.979Z,38.17
2018-08-18T16:55:16.040Z,37.78
2018-08-18T16:57:46.906Z,38.52
2018-08-18T17:00:17.761Z,38.25
2018-08-18T17:02:48.910Z,38.87
2018-08-18T17:05:19.750Z,39.09
2018-08-18T17:07:50.597Z,39.28
2018-08-18T17:10:21.525Z,39.97
2018-08-18T17:12:52.392Z,40.75
2018-08-18T17:15:23.205Z,40.59
2018-08-18T17:17:54.095Z,41.07
2018-08-18T17:20:24.889Z,41.28
2018-08-18T17:22:55.685Z,42.46
2018-08-18T17:25:28.660Z,42.84
2018-08-18T17:27:59.457Z,42.89
2018-08-18T17:30:33.164Z,43.99
2018-08-18T17:33:04.072Z,43.83
2018-08-18T17:35:34.859Z,45.21
2018-08-18T17:38:05.843Z,45.57
2018-08-18T17:40:36.653Z,45.31
2018-08-18T17:43:07.491Z,45.82
2018-08-18T17:45:45.568Z,45.48
2018-08-18T17:48:16.457Z,45.86
2018-08-18T17:50:47.310Z,44.88
2018-08-18T17:53:18.122Z,45.47
2018-08-18T17:56:00.222Z,46.67
2018-08-18T17:58:31.219Z,46.03
2018-08-18T18:01:02.478Z,45.55
2018-08-18T18:03:33.552Z,45.40
2018-08-18T18:06:04.460Z,45.12
2018-08-18T18:08:35.322Z,45.69
2018-08-18T18:11:06.217Z,46.51
2018-08-18T18:13:37.025Z,48.72
2018-08-18T18:16:21.539Z,49.22
2018-08-18T18:18:52.366Z,49.87
2018-08-18T18:21:23.133Z,50.49
2018-08-18T18:23:53.999Z,50.43
2018-08-18T18:26:24.812Z,49.04
2018-08-18T18:28:55.884Z,49.49
2018-08-18T18:31:26.678Z,49.96
2018-08-18T18:34:02.610Z,49.91
2018-08-18T18:36:34.502Z,50.75
2018-08-18T18:39:06.804Z,50.21
2018-08-18T18:41:37.647Z,50.36
2018-08-18T18:44:08.587Z,49.92
2018-08-18T18:46:39.373Z,48.21
2018-08-18T18:49:24.008Z,48.21
2018-08-18T18:51:54.811Z,49.44
2018-08-18T18:54:25.802Z,52.89
2018-08-18T18:56:56.851Z,53.87
2018-08-18T18:59:27.691Z,54.30
2018-08-18T19:01:58.506Z,53.82
2018-08-18T19:04:29.364Z,53.35
2018-08-18T19:07:02.901Z,53.11
2018-08-18T19:09:33.834Z,52.61
2018-08-18T19:12:04.728Z,52.49
2018-08-18T19:14:35.561Z,52.04
2018-08-18T19:17:06.406Z,52.61
2018-08-18T19:19:37.224Z,52.37
2018-08-18T19:22:10.180Z,53.81
2018-08-18T19:24:41.049Z,54.11
2018-08-18T19:27:12.244Z,54.82
2018-08-18T19:29:43.071Z,53.86
2018-08-18T19:32:13.847Z,52.95
2018-08-18T19:34:44.667Z,53.29
2018-08-18T19:37:17.988Z,54.04
2018-08-18T19:39:49.688Z,55.20
2018-08-18T19:42:20.491Z,55.85
2018-08-18T19:44:52.549Z,56.13
2018-08-18T19:47:31.266Z,55.56
2018-08-18T19:50:02.094Z,55.63
2018-08-18T19:52:32.868Z,54.82
2018-08-18T19:55:03.837Z,53.54
2018-08-18T19:57:36.966Z,53.84
2018-08-18T20:00:18.472Z,54.17
2018-08-18T20:03:00.885Z,54.45
2018-08-18T20:05:36.749Z,55.07
2018-08-18T20:08:13.600Z,55.73
2018-08-18T20:10:54.540Z,56.17
2018-08-18T20:13:31.563Z,56.99
2018-08-18T20:16:07.744Z,57.53
2018-08-18T20:18:46.178Z,56.87
2018-08-18T20:21:22.134Z,57.45
2018-08-18T20:23:57.901Z,58.29
2018-08-18T20:26:33.822Z,55.83
2018-08-18T20:29:09.652Z,56.05
2018-08-18T20:32:01.539Z,58.19
2018-08-18T20:34:37.430Z,59.28
2018-08-18T20:37:13.553Z,58.49
2018-08-18T20:39:49.331Z,58.38
2018-08-18T20:42:30.853Z,58.70
2018-08-18T20:45:06.936Z,59.13
2018-08-18T20:47:44.556Z,59.49
2018-08-18T20:50:20.456Z,59.94
2018-08-18T20:53:00.446Z,60.67
2018-08-18T20:55:36.291Z,61.09
2018-08-18T20:58:12.225Z,60.04
2018-08-18T21:00:47.994Z,60.36
2018-08-18T21:03:57.203Z,60.58
2018-08-18T21:06:33.071Z,60.10
2018-08-18T21:09:24.170Z,60.41
2018-08-18T21:11:59.941Z,59.24
2018-08-18T21:14:35.828Z,62.11
2018-08-18T21:17:11.779Z,62.26
2018-08-18T21:19:47.619Z,62.35
2018-08-18T21:22:27.552Z,63.16
2018-08-18T21:25:03.274Z,60.83
2018-08-18T21:27:39.892Z,61.24
2018-08-18T21:30:18.072Z,62.31
2018-08-18T21:32:53.817Z,61.49
2018-08-18T21:35:29.764Z,60.41
2018-08-18T21:38:05.946Z,62.24
2018-08-18T21:40:44.377Z,61.89
2018-08-18T21:43:31.166Z,61.29
2018-08-18T21:46:09.202Z,64.06
2018-08-18T21:48:51.314Z,65.47
2018-08-18T21:51:27.921Z,65.83
2018-08-18T21:54:03.965Z,65.79
2018-08-18T21:59:47.400Z,67.12
2018-08-18T22:02:35.530Z,66.53
2018-08-18T22:05:13.859Z,65.62
2018-08-18T22:07:52.577Z,64.60
2018-08-18T22:10:28.733Z,64.97
2018-08-18T22:16:02.772Z,65.59
2018-08-18T22:18:38.708Z,65.10
2018-08-18T22:21:17.329Z,65.61
2018-08-18T22:23:53.274Z,65.33
2018-08-18T22:26:29.639Z,66.40
2018-08-18T22:29:06.665Z,65.50
2018-08-18T22:31:43.953Z,66.38
2018-08-18T22:34:19.808Z,65.72
2018-08-18T22:37:01.482Z,65.66
2018-08-18T22:39:37.672Z,66.09
2018-08-18T22:42:14.602Z,66.50
2018-08-18T22:44:50.502Z,67.78
2018-08-18T22:47:26.540Z,67.69
2018-08-18T22:50:02.467Z,68.57
2018-08-18T22:52:42.510Z,69.73
2018-08-18T22:55:19.133Z,69.57
2018-08-18T22:58:02.277Z,70.36
2018-08-18T23:00:42.062Z,68.25
2018-08-18T23:03:17.818Z,67.81
2018-08-18T23:05:53.879Z,67.04
2018-08-18T23:08:29.512Z,66.84
2018-08-18T23:11:05.447Z,66.79
2018-08-18T23:13:41.241Z,66.96
2018-08-18T23:16:17.291Z,66.73
2018-08-18T23:18:53.110Z,67.79
2018-08-18T23:21:29.846Z,68.50
2018-08-18T23:24:19.385Z,68.92
2018-08-18T23:26:55.082Z,68.67
2018-08-18T23:29:29.995Z,70.27
2018-08-18T23:32:27.009Z,71.72
2018-08-18T23:35:02.742Z,71.75
2018-08-18T23:37:38.525Z,71.04
2018-08-18T23:40:14.410Z,71.72
2018-08-18T23:42:50.640Z,71.41
2018-08-18T23:45:36.543Z,71.76
2018-08-18T23:48:13.661Z,72.71
2018-08-18T23:50:49.389Z,72.63
2018-08-18T23:53:25.281Z,72.18
2018-08-18T23:56:01.187Z,71.15
2018-08-18T23:58:38.729Z,71.67
